createdAt,value
2023-04-02T00:00:09.720Z,78.24
2023-04-02T00:05:18.157Z,78.37
2023-04-02T00:10:27.955Z,78.60
2023-04-02T00:15:26.997Z,79.19
2023-04-02T00:20:27.359Z,77.82
2023-04-02T00:25:43.092Z,77.79
2023-04-02T00:31:10.662Z,77.71
2023-04-02T00:36:09.634Z,76.88
2023-04-02T00:41:08.511Z,78.08
2023-04-02T00:46:24.185Z,77.57
2023-04-02T00:51:26.017Z,77.33
2023-04-02T00:56:36.646Z,77.16
2023-04-02T01:01:37.838Z,77.89
2023-04-02T01:06:38.920Z,80.38
2023-04-02T01:11:52.822Z,78.96
2023-04-02T01:17:10.845Z,78.11
2023-04-02T01:22:21.875Z,76.95
2023-04-02T01:27:23.642Z,78.14
2023-04-02T01:32:24.866Z,78.69
2023-04-02T01:37:36.842Z,77.42
2023-04-02T01:43:08.721Z,77.69
2023-04-02T01:48:16.889Z,77.08
2023-04-02T01:53:18.023Z,79.51
2023-04-02T01:58:26.337Z,79.58
2023-04-02T02:03:27.157Z,77.90
2023-04-02T02:08:34.689Z,78.44
2023-04-02T02:13:34.000Z,76.45
2023-04-02T02:18:33.357Z,74.20
2023-04-02T02:23:32.624Z,76.79
2023-04-02T02:28:36.689Z,77.54
2023-04-02T02:33:58.899Z,77.09
2023-04-02T02:39:25.626Z,75.20
2023-04-02T02:44:27.554Z,74.56
2023-04-02T02:49:38.153Z,74.55
2023-04-02T02:54:42.582Z,76.02
2023-04-02T02:59:43.085Z,75.99
2023-04-02T03:04:47.363Z,74.39
2023-04-02T03:10:12.521Z,74.08
2023-04-02T03:15:32.289Z,72.88
2023-04-02T03:20:31.230Z,73.92
2023-04-02T03:26:01.977Z,73.62
2023-04-02T03:31:33.856Z,73.84
2023-04-02T03:36:38.508Z,74.35
2023-04-02T03:41:47.538Z,74.18
2023-04-02T03:46:57.496Z,74.21
2023-04-02T03:52:05.888Z,74.25
2023-04-02T03:57:18.263Z,74.91
2023-04-02T04:02:26.861Z,75.04
2023-04-02T04:07:54.237Z,74.95
2023-04-02T04:13:01.438Z,75.42
2023-04-02T04:18:38.042Z,75.02
2023-04-02T04:23:50.212Z,74.65
2023-04-02T04:29:12.588Z,73.64
2023-04-02T04:34:16.650Z,75.61
2023-04-02T04:39:23.967Z,74.76
2023-04-02T04:44:28.804Z,74.61
2023-04-02T04:50:08.654Z,74.46
2023-04-02T04:55:42.978Z,74.60
2023-04-02T05:01:07.723Z,75.09
2023-04-02T05:06:35.719Z,74.14
2023-04-02T05:11:43.790Z,73.60
2023-04-02T05:16:49.986Z,73.91
2023-04-02T05:22:00.068Z,73.83
2023-04-02T05:27:02.016Z,72.88
2023-04-02T05:32:28.555Z,74.06
2023-04-02T05:37:31.116Z,72.59
2023-04-02T05:42:37.783Z,72.82
2023-04-02T05:47:44.630Z,72.84
2023-04-02T05:53:21.822Z,73.64
2023-04-02T05:58:37.320Z,73.92
2023-04-02T06:04:22.354Z,73.50
2023-04-02T06:09:29.470Z,73.40
2023-04-02T06:14:28.496Z,73.25
2023-04-02T06:19:37.397Z,73.39
2023-04-02T06:24:40.367Z,73.58
2023-04-02T06:29:44.248Z,73.74
2023-04-02T06:34:47.651Z,73.12
2023-04-02T06:39:48.966Z,74.95
2023-04-02T06:44:50.158Z,74.14
2023-04-02T06:50:41.001Z,71.26
2023-04-02T06:55:47.004Z,71.51
2023-04-02T07:00:50.811Z,72.66
2023-04-02T07:06:05.425Z,72.24
2023-04-02T07:11:06.207Z,71.67
2023-04-02T07:16:06.065Z,71.91
2023-04-02T07:21:05.515Z,71.08
2023-04-02T07:26:05.398Z,70.91
2023-04-02T07:31:04.338Z,70.92
2023-04-02T07:36:03.342Z,70.47
2023-04-02T07:41:06.578Z,71.84
2023-04-02T07:46:06.327Z,71.24
2023-04-02T07:51:06.135Z,71.17
2023-04-02T07:56:07.286Z,71.00
2023-04-02T08:01:19.489Z,69.26
2023-04-02T08:06:18.660Z,68.09
2023-04-02T08:11:17.729Z,70.19
2023-04-02T08:16:16.921Z,69.92
2023-04-02T08:21:16.618Z,69.23
2023-04-02T08:26:18.982Z,69.11
2023-04-02T08:31:18.148Z,67.75
2023-04-02T08:36:18.410Z,68.35
2023-04-02T08:41:24.656Z,66.39
2023-04-02T08:46:30.711Z,66.27
2023-04-02T08:51:34.333Z,66.15
2023-04-02T08:57:06.690Z,66.78
2023-04-02T09:02:35.813Z,67.04
2023-04-02T09:07:34.972Z,65.79
2023-04-02T09:12:34.645Z,65.41
2023-04-02T09:17:42.699Z,65.45
2023-04-02T09:22:48.564Z,66.29
2023-04-02T09:27:50.457Z,64.72
2023-04-02T09:32:58.121Z,64.97
2023-04-02T09:38:09.088Z,64.39
2023-04-02T09:43:18.522Z,65.05
2023-04-02T09:48:22.253Z,65.04
2023-04-02T09:53:35.563Z,66.28
2023-04-02T09:58:34.385Z,67.26
2023-04-02T10:03:34.456Z,66.14
2023-04-02T10:08:33.433Z,65.83
2023-04-02T10:13:51.566Z,66.80
2023-04-02T10:18:59.478Z,67.31
2023-04-02T10:23:59.685Z,66.30
2023-04-02T10:29:21.644Z,65.30
2023-04-02T10:34:24.934Z,66.28
2023-04-02T10:39:38.683Z,65.44
2023-04-02T10:44:47.822Z,65.38
2023-04-02T10:50:08.309Z,63.98
2023-04-02T10:55:31.952Z,63.47
2023-04-02T11:00:44.848Z,62.62
2023-04-02T11:05:46.765Z,62.71
2023-04-02T11:10:59.231Z,60.78
2023-04-02T11:15:58.238Z,60.97
2023-04-02T11:21:09.123Z,61.70
2023-04-02T11:26:32.623Z,61.63
2023-04-02T11:31:32.155Z,61.67
2023-04-02T11:36:53.032Z,60.41
2023-04-02T11:42:03.082Z,61.68
2023-04-02T11:47:16.625Z,61.63
2023-04-02T11:52:23.921Z,61.19
2023-04-02T11:58:00.485Z,61.67
2023-04-02T12:03:36.118Z,61.91
2023-04-02T12:08:59.028Z,60.51
2023-04-02T12:13:59.122Z,60.81
2023-04-02T12:18:59.406Z,59.83
2023-04-02T12:23:59.579Z,59.18
2023-04-02T12:29:27.192Z,58.59
2023-04-02T12:34:29.026Z,73.13
2023-04-02T12:39:28.483Z,54.41
2023-04-02T12:44:29.666Z,48.10
2023-04-02T12:49:37.192Z,51.82
2023-04-02T12:54:51.162Z,52.26
2023-04-02T12:59:52.229Z,53.50
2023-04-02T13:05:01.032Z,53.95
2023-04-02T13:10:06.366Z,54.08
2023-04-02T13:15:08.324Z,54.63
2023-04-02T13:20:30.974Z,54.39
2023-04-02T13:25:36.504Z,54.87
2023-04-02T13:30:35.558Z,55.29
2023-04-02T13:35:34.598Z,55.84
2023-04-02T13:40:34.941Z,56.64
2023-04-02T13:45:37.805Z,57.05
2023-04-02T13:50:36.968Z,56.13
2023-04-02T13:55:40.185Z,55.41
2023-04-02T14:00:39.058Z,54.53
2023-04-02T14:05:49.889Z,55.61
2023-04-02T14:11:03.444Z,55.02
2023-04-02T14:16:34.678Z,55.95
2023-04-02T14:21:45.985Z,56.64
2023-04-02T14:27:07.539Z,56.21
2023-04-02T14:32:08.023Z,56.12
2023-04-02T14:37:38.258Z,57.22
2023-04-02T14:42:52.139Z,57.02
2023-04-02T14:47:57.675Z,58.92
2023-04-02T14:53:02.211Z,56.55
2023-04-02T14:58:05.564Z,56.73
2023-04-02T15:03:07.634Z,58.08
2023-04-02T15:08:15.600Z,56.56
2023-04-02T15:13:21.380Z,56.40
2023-04-02T15:18:20.164Z,56.18
2023-04-02T15:23:51.113Z,56.16
2023-04-02T15:29:28.869Z,56.04
2023-04-02T15:35:01.014Z,56.03
2023-04-02T15:40:02.844Z,55.19
2023-04-02T15:45:09.660Z,55.73
2023-04-02T15:50:42.884Z,55.84
2023-04-02T15:56:04.232Z,55.60
2023-04-02T16:01:29.548Z,56.49
2023-04-02T16:06:56.661Z,56.78
2023-04-02T16:12:17.051Z,56.82
2023-04-02T16:17:25.388Z,56.19
2023-04-02T16:22:28.437Z,56.40
2023-04-02T16:27:40.349Z,55.83
2023-04-02T16:32:51.459Z,57.48
2023-04-02T16:38:07.857Z,56.84
2023-04-02T16:43:09.690Z,56.76
2023-04-02T16:48:24.136Z,56.66
2023-04-02T16:54:01.115Z,56.60
2023-04-02T16:59:48.926Z,55.99
2023-04-02T17:04:53.225Z,55.58
2023-04-02T17:09:57.309Z,56.08
2023-04-02T17:15:11.516Z,57.45
2023-04-02T17:20:21.062Z,57.47
2023-04-02T17:25:25.960Z,58.31
2023-04-02T17:30:48.002Z,56.86
2023-04-02T17:53:52.623Z,56.92
2023-04-02T17:59:29.917Z,57.05
2023-04-02T18:04:41.775Z,57.76
2023-04-02T18:09:46.999Z,59.59
2023-04-02T18:15:23.490Z,57.58
2023-04-02T18:20:37.338Z,58.46
2023-04-02T18:26:07.001Z,58.09
2023-04-02T18:31:11.886Z,58.40
2023-04-02T18:36:28.469Z,58.33
2023-04-02T18:41:36.522Z,59.37
2023-04-02T18:46:41.423Z,59.11
2023-04-02T18:51:40.356Z,59.88
2023-04-02T18:56:40.491Z,59.62
2023-04-02T19:01:44.196Z,60.86
2023-04-02T19:06:47.204Z,60.73
2023-04-02T19:11:47.840Z,59.91
2023-04-02T19:17:23.244Z,60.70
2023-04-02T19:22:49.898Z,60.94
2023-04-02T19:28:07.249Z,60.55
2023-04-02T19:33:15.007Z,59.90
2023-04-02T19:38:39.873Z,60.56
2023-04-02T19:43:38.646Z,60.73
2023-04-02T19:48:47.974Z,60.47
2023-04-02T19:53:46.700Z,59.59
2023-04-02T19:58:45.835Z,60.51
2023-04-02T20:03:44.836Z,62.41
2023-04-02T20:08:43.768Z,61.03
2023-04-02T20:13:45.189Z,61.33
2023-04-02T20:18:44.007Z,61.66
2023-04-02T20:23:42.934Z,61.49
2023-04-02T20:28:41.826Z,60.14
2023-04-02T20:33:41.384Z,60.20
2023-04-02T20:38:40.546Z,60.24
2023-04-02T20:43:40.887Z,59.95
2023-04-02T20:48:43.289Z,59.23
2023-04-02T20:58:23.274Z,59.73
2023-04-02T21:03:22.153Z,60.78
2023-04-02T21:08:21.282Z,59.81
2023-04-02T21:13:20.437Z,59.35
2023-04-02T21:18:19.702Z,58.97
2023-04-02T21:23:18.489Z,59.22
2023-04-02T21:28:17.403Z,58.20
2023-04-02T21:33:16.332Z,58.63
2023-04-02T21:38:15.380Z,57.87
2023-04-02T21:43:14.124Z,57.42
2023-04-02T21:48:12.968Z,58.16
2023-04-02T21:53:11.910Z,57.47
2023-04-02T21:58:10.773Z,57.28
2023-04-02T22:03:11.730Z,57.71
2023-04-02T22:08:13.170Z,57.56
2023-04-02T22:13:11.983Z,57.49
2023-04-02T22:18:10.960Z,57.43
2023-04-02T22:23:10.326Z,56.91
2023-04-02T22:28:09.475Z,56.25
2023-04-02T22:33:08.622Z,56.90
2023-04-02T22:38:07.625Z,56.64
2023-04-02T22:43:06.432Z,57.48
2023-04-02T22:48:05.442Z,57.26
2023-04-02T22:53:04.680Z,56.61
2023-04-02T22:58:03.500Z,57.44
2023-04-02T23:03:02.675Z,56.72
2023-04-02T23:08:01.613Z,55.42
2023-04-02T23:13:00.686Z,55.08
2023-04-02T23:17:59.558Z,56.20
2023-04-02T23:22:58.350Z,56.03
2023-04-02T23:27:57.215Z,56.74
2023-04-02T23:32:56.223Z,55.96
2023-04-02T23:37:55.005Z,56.46
2023-04-02T23:42:53.781Z,54.64
2023-04-02T23:47:52.596Z,53.49
2023-04-02T23:52:51.505Z,52.89
2023-04-02T23:57:51.449Z,53.37
